Ana Sayfa
METAR-TAF:

METAR-TAF

Havaalanları :

Keene, New Hampshire, Amerika Birleşik Devletleri

Enlem: 42-54N, Boylam: 072-16W, yükseklik: 149 m

Güncel hava durumu gözlemi

Rapor saat 01:56 UTC de 1 saat ve 6 dakika önce yapıldı.
Sakin rüzgar
Sıcaklık 2°C
Nem 80%
Basınç 1006 hPa
Görüş mesafesi: 16.1 km
1700 ft yükseklikte çok bulutlu

METAR: KEEN 190156Z AUTO 00000KT 10SM OVC017 02/M01 A2971 RMK AO2 SLP069 T00221011 FZRANO $

Saat: 22:02 (03:02 UTC)


TAF: eksik

4.000'den fazla havaalanı için hava durumu gözlemleri ve tahminleri (METAR ve TAF raporları).

Kullanılabilir istasyonlar harita üzerinde sarı ve kırmızı noktalarla gösterilir.

İstasyonun adını görmek için fareyi noktanın üzerinde gezdirin.

Sonrasında hava gözlem ve tahminlerini görmek için tıklayın.

Haritayı değiştirmek için: yaklaştırmak için siyah artı işaretli yeşil düğmeye ve uzaklaştırmak için de eksi işaretli düğmeye hızla tıklayın; bitişik haritalar için yeşil okları kullanın.


METAR-TAF: